AirNav   Air Wisconsin pilot careers
 
 944 users online  

6K3 Creighton Municipal Airport
Creighton, Nebraska, USA

GOING TO CREIGHTON?


FAA INFORMATION EFFECTIVE 29 MARCH 2018

Location

FAA Identifier: 6K3
Lat/Long: 42-28-16.6000N / 097-53-05.1000W
42-28.276667N / 097-53.085000W
42.4712778 / -97.8847500
(estimated)
Elevation: 1653 ft. / 503.8 m (surveyed)
Variation: 05E (2010)
From city: 1 mile E of CREIGHTON, NE
Time zone: UTC -5 (UTC -6 during Standard Time)
Zip code: 68729

Airport Operations

Airport use: Open to the public
Activation date: 05/1947
Control tower: no
ARTCC: MINNEAPOLIS CENTER
FSS: COLUMBUS FLIGHT SERVICE STATION
NOTAMs facility: OLU (NOTAM-D service available)
Attendance: UNATNDD
Wind indicator: lighted
Segmented circle: yes
Lights: DUSK-2300. FOR MIRL RY 13/31 AFT 2300 ACTVT - CTAF. ACTVT PAPI RY 13-31 - CTAF.
Beacon: white-green (lighted land airport)
Operates sunset to sunrise.

Airport Communications

CTAF: 122.9
  • APCH/DEP SVC PROVIDED BY MINNEAPOLIS ARTCC ON FREQS 128.0/257.95 (O'NEILL RCAG).

Nearby radio navigation aids

VOR radial/distance  VOR name  Freq  Var
YKNr212/34.7YANKTON VOR/DME111.4007E
OFKr317/35.2NORFOLK VOR/DME109.6008E
ONLr080/35.5O'NEILL VORTAC113.9010E

 
NDB name  Hdg/Dist  Freq  Var  ID
WAGNER145/39.839208EAGZ .- --. --..

Airport Services

Fuel available: 100LL
SELF SVR CC 24 HR
Parking: tiedowns
Airframe service: NONE
Powerplant service: NONE
Bottled oxygen: NONE
Bulk oxygen: NONE

Runway Information

Runway 13/31

Dimensions: 3700 x 60 ft. / 1128 x 18 m
Surface: concrete, in excellent condition
Weight bearing capacity: 
Single wheel: 12.0
Runway edge lights: medium intensity
RUNWAY 13  RUNWAY 31
Latitude: 42-28.500827N42-28.106700N
Longitude: 097-53.408218W097-52.780625W
Elevation: 1641.8 ft.1644.0 ft.
Gradient: 0.6%0.6%
Traffic pattern: leftleft
Runway heading: 125 magnetic, 130 true305 magnetic, 310 true
Markings: nonprecision, in good conditionnonprecision, in good condition
Visual slope indicator: 2-light PAPI on left (3.00 degrees glide path)2-light PAPI on left (3.00 degrees glide path)
Touchdown point: yes, no lightsyes, no lights
Obstructions: none23 ft. pole, lighted, 1010 ft. from runway, 110 ft. left of centerline, 35:1 slope to clear

Runway 18/36

Dimensions: 2100 x 200 ft. / 640 x 61 m
Surface: turf, in fair condition
Gradient: N
RUNWAY 18  RUNWAY 36
Latitude: 42-28.400582N42-28.060225N
Longitude: 097-53.024990W097-53.107708W
Elevation: 1653.0 ft.1628.0 ft.
Gradient: 1.2%1.2% UP
Traffic pattern: leftleft
Runway heading: 185 magnetic, 190 true005 magnetic, 010 true
Touchdown point: yes, no lightsyes, no lights
Obstructions: 10 ft. fence, 200 ft. from runway, 20:1 slope to clear
OBSTN LCTD 150' RGT OF RWY CNTRLN EXTDD.
15 ft. road, 320 ft. from runway, 21:1 slope to clear
OBSTN LCTD EITHER SIDE OF RWY CNTRLN EXTDD.

Airport Ownership and Management from official FAA records

Ownership: Publicly-owned
Owner: CREIGHTON AIRPORT AUTHORITY
PO BOX 188
CREIGHTON, NE 68729-0188
Phone (402) 358-3557
Manager: ROBERT BORGMANN
P.O. BOX 51
CREIGHTON, NE 68729-0051
Phone (402) 360-2916
MANAGER HOME PHONE 402-358-3343.

Airport Operational Statistics

Aircraft based on the field: 10
Single engine airplanes: 10
    
Aircraft operations: avg 44/week *
91% local general aviation
9% transient general aviation
* for 12-month period ending 26 July 2016

Instrument Procedures

NOTE: All procedures below are presented as PDF files. If you need a reader for these files, you should download the free Adobe Reader.

NOT FOR NAVIGATION. Please procure official charts for flight.
FAA instrument procedures published for use from 29 March 2018 at 0901Z to 26 April 2018 at 0900Z.

 
IAPs - Instrument Approach Procedures
RNAV (GPS) RWY 13   download (188KB)
RNAV (GPS) RWY 31   download (192KB)
NOTE: Special Take-Off Minimums/Departure Procedures apply   download (192KB)

Other nearby airports with instrument procedures:

4V9 - Antelope County Airport (23 nm S)
0B4 - Hartington Municipal Airport / Bud Becker Field (29 nm E)
KYKN - Chan Gurney Municipal Airport (35 nm NE)
KOFK - Norfolk Regional Airport/Karl Stefan Memorial Field (35 nm SE)
KONL - The O'Neill Municipal Airport-John L Baker Field (36 nm W)
 
Loc | Ops | Rwys | IFR | FBO | Links
Com | Nav | Svcs | Stats | Notes

Silverhawk Aviation, Inc.
AirBoss

 
Area around 6K3 (Creighton Municipal Airport)
 
Road maps at: MapQuest Bing Google
 
Aerial photo
WARNING: Photo may not be current or correct
Aerial photo of 6K3 (Creighton Municipal Airport)
Photo by Steve Hamilton
Photo taken 01-Oct-2005

Do you have a better or more recent aerial photo of Creighton Municipal Airport that you would like to share? If so, please send us your photo.

 
Sectional chart

 
Airport distance calculator
Flying to Creighton Municipal Airport? Find the distance to fly.

From to 6K3

Sunrise and sunset
Times for 20-Apr-2018
 Local
(UTC-5)
 Zulu
(UTC)
Morning civil twilight06:1411:14
Sunrise06:4311:43
Sunset20:1801:18
Evening civil twilight20:4701:47

Current date and time
Zulu (UTC)  21-Apr-2018 00:10:48
Local (UTC-5)  20-Apr-2018 19:10:48
 
METAR
KONL 
35nm W 
202355Z AUTO 09004KT 10SM BKN090 BKN110 11/02 A3029 RMK AO2 T01110015 10130 20108
KYKN 
35nm NE 
202356Z AUTO 08004KT 10SM CLR 12/03 A3032 RMK AO2 SLP291 T01170033 10133 20100 50009
KOFK 
35nm SE 
202356Z AUTO 08009KT 10SM BKN095 OVC110 12/M01 A3027 RMK AO2 SLP260 T01171011 10144 20117 50009
KAGZ 
40nm NW 
SuperAWOS
202315Z AUTO 00000KT 10SM 12/04
KLCG 
42nm E 
202355Z AUTO 12007KT 10SM BKN110 13/M03 A3031 RMK AO2 T01271027 10145 20126
KBVN 
45nm S 
202355Z AUTO 11005KT 10SM SCT110 13/00 A3028 RMK AO2 T01300000 10143 20115
KVMR 
46nm NE 
SuperAWOS
202335Z AUTO 00000KT 10SM 13/00 A3038
TAF
KOFK 
35nm SE 
201723Z 2018/2118 15012KT P6SM OVC250 FM210000 11007KT P6SM OVC110
NOTAMs
Click for the latest NOTAMs
NOTAMs are issued by the DoD/FAA and will open in a separate window not controlled by AirNav.

 

 
 

FBO, Fuel Providers, and Aircraft Ground Support

  
 Business Name 
 
 Contact 
 
 Services / Description 
 
Fuel Prices
 
Comments
  
Creighton Municipal Airport 402-358-5252
no information available

If you are affiliated with Creighton Municipal Airport and would like to show here your services, contact info, web link, logo, and more, click here
100LL
SS $3.99 
 Updated 03-Sep-2016
 
   write
SS=Self service
Update Fuel Prices
 

Would you like to see your business listed on this page?

 If your business provides an interesting product or service to pilots, flight crews, aircraft, or users of the Creighton Municipal Airport, you should consider listing it here.  To start the listing process, click on the button below
 
Add a business
 

Other Pages about Creighton Municipal Airport

Update a link
 
Copyright © AirNav, LLC. All rights reserved. Privacy Policy  Contact